Detalii statie FIRST FARMS FAUREI [00001992]

Toti senzorii

Date Temperatura solului [C]Precipitatii [mm]Voltaj baterie [mV]Leaf Wetness [Min]HC Air temperature [C]HC Relative humidity [%]Punctul de roua [C]
medieminmaxsumaultimatimpmedieminmaxmediemediemin
2018-12-09 15:00:00 -0.4 -0.7 -0.4 0 7010 3.78 3.69 3.83 0 0 0
2018-12-09 16:00:00 -0.4 -0.5 -0.3 0 6942 3.77 3.61 3.89 0 0 0
2018-12-09 17:00:00 -0.4 -0.5 -0.4 0 6874 3 2.59 3.46 0 0 0
2018-12-09 18:00:00 -0.4 -0.5 -0.4 0 6816 2.46 2.18 2.74 0 0 0
2018-12-09 19:00:00 -0.4 -0.5 -0.4 0 6806 1.96 1.76 2.22 0.02 0 0
2018-12-09 20:00:00 -0.4 -0.6 -0.4 0 6728 1.81 1.74 1.94 3.77 -3.3 0
2018-12-09 21:00:00 -0.4 -0.6 -0.4 0 6756 1.61 1.53 1.7 92.98 0.4 -3.3
2018-12-09 22:00:00 -0.4 -0.5 -0.4 0 6756 1.36 1.25 1.63 100 1.3 1.2
2018-12-09 23:00:00 -0.4 -0.6 -0.4 0 6756 1.18 1.15 1.23 100 1.1 1.1
2018-12-10 00:00:00 -0.4 -0.5 -0.4 0 6756 0.8 0.52 1.1 100 0.7 0.5
2018-12-10 01:00:00 -0.4 -0.5 -0.4 0 6756 0.33 0.18 0.5 100 0.2 0.1
2018-12-10 02:00:00 -0.4 -0.5 -0.4 0 6756 0.11 0.02 0.17 100 0 0
2018-12-10 03:00:00 -0.4 -0.7 -0.4 0 6738 -0.01 -0.18 0.1 100 0 0
2018-12-10 04:00:00 -0.4 -0.5 -0.3 0 6748 -0.31 -0.56 -0.23 100 -0.1 -0.4
2018-12-10 05:00:00 -0.4 -0.6 -0.4 0 6748 -0.51 -0.58 -0.45 100 -0.3 -0.4
2018-12-10 06:00:00 -0.4 -0.5 -0.4 0 6738 -0.7 -0.88 -0.61 100 -0.5 -0.7
2018-12-10 07:00:00 -0.3 -0.4 -0.2 0 6738 -0.78 -0.96 -0.47 0 0 0
2018-12-10 08:00:00 -0.4 -0.5 -0.3 0 6728 -1.35 -1.49 -1.1 66.66 -0.8 0
2018-12-10 09:00:00 -0.4 -0.6 -0.3 0 6776 -1.88 -2.07 -1.61 100 -1.7 -1.9
2018-12-10 10:00:00 -0.3 -0.5 -0.2 0 6834 -1.84 -2.11 -1.58 100 -1.7 -2
2018-12-10 11:00:00 -0.3 -0.6 -0.3 0 7088 -1.12 -1.54 -0.8 100 -0.9 -1.4
2018-12-10 12:00:00 -0.3 -0.4 -0.3 0 7118 -0.3 -0.76 0.2 100 -0.1 -0.6
2018-12-10 13:00:00 -0.3 -0.4 -0.3 0 7108 0.45 -0.04 0.88 100 0.4 0
2018-12-10 14:00:00 -0.3 -0.4 -0.3 0 7226 1.54 1.15 1.97 100 1.4 1.1
2018-12-10 15:00:00 -0.2 -0.4 -0.2 0 7196 2.57 1.95 3.62 16.66 0.3 0
2018-12-10 16:00:00 -0.2 -0.3 -0.2 0 7050 2.43 1.83 2.91 41.66 0
2018-12-10 17:00:00 -0.2 -0.5 -0.2 0 6962 1.02 0.15 1.78 83.33 0.7 0
2018-12-10 18:00:00 -0.1 -0.2 -0.1 0 6894 0.68 0.34 0.84 100 0.6 0.3
2018-12-10 19:00:00 -0.1 -0.2 -0.1 0 6884 0.73 0.65 0.81 100 0.6 0.6
2018-12-10 20:00:00 -0.1 -0.2 -0.1 0 6864 0.65 0.51 0.78 100 0.6 0.5
2018-12-10 21:00:00 -0.1 -0.2 0 0.2 6864 0.28 -0.04 0.51 100 0.2 0
2018-12-10 22:00:00 -0.1 -0.2 -0.1 0 6864 -0.42 -0.55 -0.13 100 -0.2 -0.4
2018-12-10 23:00:00 0 -0.2 0 0 6834 -0.6 -0.71 -0.5 100 -0.4 -0.6
2018-12-11 00:00:00 -0.1 -0.2 -0.1 0 6834 -0.97 -1.24 -0.75 100 -0.8 -1.1
2018-12-11 01:00:00 -0.1 -0.2 -0.1 0 6826 -1.37 -1.5 -1.25 100 -1.2 -1.4
2018-12-11 02:00:00 -0.1 -0.2 0 0 6826 -1.07 -1.25 -0.97 100 -0.9 -1.1
2018-12-11 03:00:00 -0.1 -0.2 0 0 6806 -0.74 -0.99 -0.49 100 -0.5 -0.8
2018-12-11 04:00:00 0 -0.1 0 0 6816 -0.42 -0.49 -0.29 100 -0.2 -0.3
2018-12-11 05:00:00 -0.1 -0.1 -0.1 0 6816 -0.17 -0.3 0.06 100 0 -0.2
2018-12-11 06:00:00 0 -0.2 0 0 6786 0.54 0.08 1.25 100 0.5 0
2018-12-11 07:00:00 0 -0.1 0.1 0 6806 1.75 1.44 1.93 100 1.7 1.4
2018-12-11 08:00:00 0 -0.2 0.1 0 6786 2.09 1.95 2.31 100 2 1.9
2018-12-11 09:00:00 0 -0.1 0.1 0 6786 2.51 2.35 2.67 100 2.4 2.3
2018-12-11 10:00:00 0 -0.1 0.2 0 6844 3.18 2.71 3.61 100 3.1 2.7
2018-12-11 11:00:00 0.1 0.1 0.3 0 6894 3.88 3.64 4.11 100 3.8 3.6
2018-12-11 12:00:00 0.3 0.2 0.4 0 6844 3.81 3.73 3.9 100 3.7 3.7
2018-12-11 13:00:00 0.4 0.3 0.5 0 6962 4.45 3.87 5.17 100 4.4 3.8
2018-12-11 14:00:00 0.5 0.5 0.7 0 7080 5.29 5.19 5.42 100 5.2 5.1